createdAt,value
2023-02-18T00:00:25.764Z,12.69
2023-02-18T00:03:03.700Z,12.60
2023-02-18T00:05:46.779Z,12.62
2023-02-18T00:08:35.160Z,12.68
2023-02-18T00:11:20.308Z,12.73
2023-02-18T00:14:06.976Z,12.76
2023-02-18T00:16:53.348Z,12.70
2023-02-18T00:19:43.191Z,12.77
2023-02-18T00:22:28.576Z,12.67
2023-02-18T00:25:06.754Z,12.76
2023-02-18T00:27:53.008Z,12.80
2023-02-18T00:30:34.671Z,12.85
2023-02-18T00:33:21.369Z,12.88
2023-02-18T00:36:00.986Z,12.95
2023-02-18T00:38:39.304Z,12.99
2023-02-18T00:41:14.616Z,13.15
2023-02-18T00:43:57.313Z,13.18
2023-02-18T00:46:40.759Z,13.19
2023-02-18T00:49:21.993Z,13.30
2023-02-18T00:52:04.122Z,13.33
2023-02-18T00:54:44.858Z,13.36
2023-02-18T00:57:27.501Z,13.36
2023-02-18T01:00:07.664Z,13.36
2023-02-18T01:02:55.284Z,13.31
2023-02-18T01:05:37.175Z,13.35
2023-02-18T01:08:22.522Z,13.31
2023-02-18T01:11:06.750Z,13.32
2023-02-18T01:13:45.318Z,13.19
2023-02-18T01:16:24.130Z,13.05
2023-02-18T01:19:20.706Z,12.97
2023-02-18T01:22:09.224Z,13.11
2023-02-18T01:24:49.970Z,13.06
2023-02-18T01:27:27.568Z,13.06
2023-02-18T01:30:18.950Z,13.11
2023-02-18T01:33:09.410Z,13.08
2023-02-18T01:35:55.266Z,13.05
2023-02-18T01:38:33.968Z,13.15
2023-02-18T01:41:22.802Z,13.09
2023-02-18T01:44:20.980Z,13.18
2023-02-18T01:47:01.916Z,13.04
2023-02-18T01:49:49.461Z,13.09
2023-02-18T01:52:31.285Z,13.08
2023-02-18T01:55:08.728Z,13.05
2023-02-18T01:57:46.403Z,13.13
2023-02-18T02:00:32.842Z,13.13
2023-02-18T02:03:13.599Z,13.19
2023-02-18T02:06:00.610Z,13.17
2023-02-18T02:08:41.384Z,13.11
2023-02-18T02:11:31.128Z,13.07
2023-02-18T02:14:51.619Z,13.08
2023-02-18T02:18:05.217Z,12.99
2023-02-18T02:21:07.104Z,13.16
2023-02-18T02:24:16.704Z,13.24
2023-02-18T02:27:16.547Z,13.20
2023-02-18T02:30:14.111Z,13.20
2023-02-18T02:33:37.566Z,12.99
2023-02-18T02:36:52.886Z,12.99
2023-02-18T02:39:54.937Z,13.01
2023-02-18T02:42:52.761Z,13.10
2023-02-18T02:45:58.367Z,13.18
2023-02-18T02:48:40.474Z,13.22
2023-02-18T02:51:39.075Z,13.16
2023-02-18T02:54:32.102Z,13.05
2023-02-18T02:57:49.262Z,13.11
2023-02-18T03:01:12.353Z,13.21
2023-02-18T03:04:20.218Z,13.15
2023-02-18T03:07:38.684Z,13.19
2023-02-18T03:10:25.904Z,13.22
2023-02-18T03:13:30.915Z,13.28
2023-02-18T03:16:18.389Z,13.30
2023-02-18T03:19:19.173Z,13.40
2023-02-18T03:22:01.001Z,13.43
2023-02-18T03:24:47.078Z,13.37
2023-02-18T03:27:29.298Z,13.46
2023-02-18T03:30:26.035Z,13.53
2023-02-18T03:33:09.332Z,13.53
2023-02-18T03:35:37.757Z,13.48
2023-02-18T03:38:38.212Z,13.49
2023-02-18T03:41:16.767Z,13.40
2023-02-18T03:44:00.713Z,13.38
2023-02-18T03:46:46.724Z,13.40
2023-02-18T03:49:33.717Z,13.49
2023-02-18T03:52:25.446Z,13.50
2023-02-18T03:55:09.380Z,13.35
2023-02-18T03:57:52.321Z,13.37
2023-02-18T04:00:32.573Z,13.40
2023-02-18T04:03:13.659Z,13.32
2023-02-18T04:05:57.493Z,13.34
2023-02-18T04:08:30.223Z,13.35
2023-02-18T04:11:23.093Z,13.31
2023-02-18T04:14:04.346Z,13.29
2023-02-18T04:16:40.467Z,13.30
2023-02-18T04:19:21.300Z,13.23
2023-02-18T04:21:59.343Z,13.25
2023-02-18T04:24:42.579Z,13.10
2023-02-18T04:27:20.355Z,13.12
2023-02-18T04:30:09.082Z,13.13
2023-02-18T04:32:43.962Z,13.09
2023-02-18T04:35:31.056Z,13.03
2023-02-18T04:38:11.574Z,13.03
2023-02-18T04:40:51.824Z,13.03
2023-02-18T04:43:30.292Z,12.94
2023-02-18T04:46:20.080Z,12.79
2023-02-18T04:48:57.376Z,12.87
2023-02-18T04:51:45.233Z,12.86
2023-02-18T04:54:23.051Z,12.85
2023-02-18T04:57:06.484Z,12.75
2023-02-18T04:59:39.550Z,12.68
2023-02-18T05:02:25.488Z,12.69
2023-02-18T05:05:01.702Z,12.56
2023-02-18T05:07:42.393Z,12.50
2023-02-18T05:10:19.986Z,12.41
2023-02-18T05:13:03.019Z,12.33
2023-02-18T05:15:50.366Z,12.25
2023-02-18T05:18:27.894Z,12.21
2023-02-18T05:21:16.255Z,12.14
2023-02-18T05:23:57.400Z,12.06
2023-02-18T05:26:44.410Z,11.98
2023-02-18T05:29:28.251Z,12.00
2023-02-18T05:32:08.154Z,11.90
2023-02-18T05:34:47.021Z,11.89
2023-02-18T05:37:25.210Z,11.85
2023-02-18T05:40:03.359Z,11.81
2023-02-18T05:42:39.189Z,11.77
2023-02-18T05:45:30.551Z,11.70
2023-02-18T05:48:17.614Z,11.66
2023-02-18T05:50:47.311Z,11.64
2023-02-18T05:53:34.726Z,11.57
2023-02-18T05:56:19.352Z,11.61
2023-02-18T05:59:01.043Z,11.56
2023-02-18T06:01:44.114Z,11.41
2023-02-18T06:04:29.403Z,11.44
2023-02-18T06:07:13.258Z,11.42
2023-02-18T06:09:56.074Z,11.37
2023-02-18T06:12:44.290Z,11.40
2023-02-18T06:15:30.965Z,11.30
2023-02-18T06:18:25.378Z,11.21
2023-02-18T06:21:04.297Z,11.22
2023-02-18T06:23:53.971Z,11.12
2023-02-18T06:26:41.674Z,11.18
2023-02-18T06:29:21.206Z,11.08
2023-02-18T06:32:06.013Z,11.21
2023-02-18T06:34:49.445Z,11.20
2023-02-18T06:37:30.417Z,11.21
2023-02-18T06:40:09.308Z,11.25
2023-02-18T06:42:46.291Z,11.20
2023-02-18T06:45:27.441Z,11.22
2023-02-18T06:48:21.528Z,11.29
2023-02-18T06:51:05.996Z,11.36
2023-02-18T06:53:43.808Z,11.29
2023-02-18T06:56:41.853Z,11.45
2023-02-18T06:59:20.436Z,11.59
2023-02-18T07:02:11.722Z,11.54
2023-02-18T07:04:53.031Z,11.66
2023-02-18T07:07:31.411Z,11.58
2023-02-18T07:10:16.352Z,11.76
2023-02-18T07:13:00.035Z,11.69
2023-02-18T07:15:56.471Z,11.89
2023-02-18T07:18:39.963Z,12.04
2023-02-18T07:21:24.002Z,12.16
2023-02-18T07:24:08.291Z,12.22
2023-02-18T07:26:41.309Z,12.33
2023-02-18T07:29:14.433Z,12.37
2023-02-18T07:31:57.149Z,12.47
2023-02-18T07:34:29.786Z,12.51
2023-02-18T07:37:09.558Z,12.65
2023-02-18T07:39:48.332Z,12.69
2023-02-18T07:42:31.919Z,12.74
2023-02-18T07:45:07.258Z,12.94
2023-02-18T07:47:56.738Z,13.09
2023-02-18T07:50:40.202Z,13.17
2023-02-18T07:53:16.682Z,13.22
2023-02-18T07:55:57.391Z,13.23
2023-02-18T07:59:00.090Z,13.28
2023-02-18T08:01:45.002Z,13.29
2023-02-18T08:04:36.768Z,13.50
2023-02-18T08:07:29.870Z,13.56
2023-02-18T08:10:08.227Z,13.57
2023-02-18T08:12:52.349Z,13.56
2023-02-18T08:15:32.687Z,13.66
2023-02-18T08:18:20.614Z,13.76
2023-02-18T08:21:07.504Z,13.70
2023-02-18T08:23:44.260Z,13.56
2023-02-18T08:26:22.492Z,13.58
2023-02-18T08:29:10.288Z,13.64
2023-02-18T08:32:06.398Z,13.81
2023-02-18T08:34:55.629Z,14.07
2023-02-18T08:37:52.404Z,14.24
2023-02-18T08:40:34.543Z,14.18
2023-02-18T08:43:21.457Z,14.16
2023-02-18T08:46:08.280Z,13.95
2023-02-18T08:48:59.078Z,13.90
2023-02-18T08:51:34.781Z,13.76
2023-02-18T08:54:17.029Z,13.62
2023-02-18T08:57:13.323Z,13.76
2023-02-18T08:59:54.390Z,13.68
2023-02-18T09:02:46.262Z,13.67
2023-02-18T09:05:30.578Z,14.04
2023-02-18T09:08:12.278Z,14.18
2023-02-18T09:11:11.142Z,14.41
2023-02-18T09:13:56.980Z,14.59
2023-02-18T09:16:32.114Z,14.43
2023-02-18T09:19:14.249Z,14.61
2023-02-18T09:21:59.194Z,14.64
2023-02-18T09:24:37.156Z,14.53
2023-02-18T09:27:15.378Z,14.54
2023-02-18T09:29:58.835Z,14.54
2023-02-18T09:32:39.117Z,14.36
2023-02-18T09:35:25.921Z,14.36
2023-02-18T09:38:03.447Z,14.47
2023-02-18T09:40:58.128Z,14.54
2023-02-18T09:43:48.088Z,14.57
2023-02-18T09:46:48.917Z,14.67
2023-02-18T09:49:36.257Z,14.38
2023-02-18T09:52:34.040Z,14.36
2023-02-18T09:55:28.398Z,14.60
2023-02-18T09:58:26.269Z,14.58
2023-02-18T10:01:24.698Z,14.77
2023-02-18T10:04:03.521Z,14.46
2023-02-18T10:06:43.156Z,14.26
2023-02-18T10:09:24.393Z,13.98
2023-02-18T10:12:23.437Z,13.86
2023-02-18T10:15:30.166Z,13.96
2023-02-18T10:18:03.548Z,13.95
2023-02-18T10:20:50.206Z,14.01
2023-02-18T10:23:34.761Z,14.13
2023-02-18T10:26:22.758Z,14.20
2023-02-18T10:29:05.326Z,14.49
2023-02-18T10:31:44.036Z,14.31
2023-02-18T10:34:42.269Z,14.29
2023-02-18T10:37:51.624Z,14.28
2023-02-18T10:40:57.597Z,14.24
2023-02-18T10:43:54.846Z,14.11
2023-02-18T10:47:22.577Z,14.03
2023-02-18T10:50:34.416Z,13.99
2023-02-18T10:53:37.766Z,13.90
2023-02-18T10:56:41.292Z,13.92
2023-02-18T10:59:34.368Z,13.98
2023-02-18T11:02:19.235Z,13.95
2023-02-18T11:05:01.929Z,14.01
2023-02-18T11:07:44.873Z,14.06
2023-02-18T11:10:39.501Z,14.00
2023-02-18T11:13:20.900Z,13.90
2023-02-18T11:16:09.393Z,14.07
2023-02-18T11:18:49.236Z,14.06
2023-02-18T11:21:35.033Z,13.86
2023-02-18T11:24:30.347Z,13.85
2023-02-18T11:27:13.557Z,13.87
2023-02-18T11:30:08.685Z,13.76
2023-02-18T11:32:57.156Z,13.83
2023-02-18T11:35:31.758Z,13.66
2023-02-18T11:38:27.079Z,13.60
2023-02-18T11:41:18.961Z,13.63
2023-02-18T11:44:03.120Z,13.62
2023-02-18T11:47:28.496Z,13.45
2023-02-18T11:50:44.342Z,13.50
2023-02-18T11:54:09.974Z,13.53
2023-02-18T11:57:14.550Z,13.40
2023-02-18T11:59:55.533Z,13.50
2023-02-18T12:02:45.362Z,13.50
2023-02-18T12:05:33.518Z,13.48
2023-02-18T12:08:22.808Z,13.57
2023-02-18T12:11:30.335Z,13.61
2023-02-18T12:14:16.787Z,13.48
2023-02-18T12:17:14.120Z,13.34
2023-02-18T12:20:10.744Z,13.28
2023-02-18T12:23:07.998Z,13.28
2023-02-18T12:26:02.728Z,13.25
2023-02-18T12:29:28.662Z,13.30
2023-02-18T12:32:22.620Z,13.33
2023-02-18T12:35:01.117Z,13.44
2023-02-18T12:38:04.554Z,13.43
2023-02-18T12:41:22.277Z,13.76
2023-02-18T12:44:28.731Z,13.90
2023-02-18T12:47:43.209Z,14.15
2023-02-18T12:50:35.577Z,14.41
2023-02-18T12:54:01.345Z,14.43
2023-02-18T12:57:01.825Z,14.64
2023-02-18T13:00:10.177Z,14.85
2023-02-18T13:03:09.990Z,14.95
2023-02-18T13:06:12.421Z,14.91
2023-02-18T13:09:12.801Z,14.90
2023-02-18T13:12:21.164Z,15.11
2023-02-18T13:15:33.168Z,15.19
2023-02-18T13:18:19.927Z,15.14
2023-02-18T13:21:05.897Z,15.15
2023-02-18T13:24:04.294Z,15.01
2023-02-18T13:26:46.341Z,15.00
2023-02-18T13:30:00.962Z,14.89
2023-02-18T13:33:14.590Z,14.96
2023-02-18T13:36:08.675Z,14.95
2023-02-18T13:39:00.759Z,14.88
2023-02-18T13:41:46.616Z,14.87
2023-02-18T13:44:57.309Z,14.71
2023-02-18T13:48:06.596Z,14.91
2023-02-18T13:50:54.176Z,15.10
2023-02-18T13:53:42.681Z,15.12
2023-02-18T13:56:33.264Z,15.05
2023-02-18T13:59:21.232Z,15.09
2023-02-18T14:02:14.466Z,15.00
2023-02-18T14:04:56.282Z,15.03
2023-02-18T14:07:50.863Z,14.95
2023-02-18T14:10:57.945Z,14.91
2023-02-18T14:13:55.828Z,14.91
2023-02-18T14:17:12.603Z,14.97
2023-02-18T14:20:31.966Z,14.93
2023-02-18T14:23:24.359Z,14.89
2023-02-18T14:26:09.521Z,14.94
2023-02-18T14:29:22.246Z,15.01
2023-02-18T14:32:13.010Z,15.01
2023-02-18T14:35:28.662Z,14.93
2023-02-18T14:38:43.142Z,14.95
2023-02-18T14:41:43.147Z,14.83
2023-02-18T14:44:50.166Z,14.74
2023-02-18T14:47:54.068Z,14.71
2023-02-18T14:50:41.497Z,14.72
2023-02-18T14:53:25.117Z,14.67
2023-02-18T14:56:07.535Z,14.68
2023-02-18T14:58:48.234Z,14.62
2023-02-18T15:01:36.481Z,14.57
2023-02-18T15:04:29.951Z,14.62
2023-02-18T15:07:21.358Z,14.67
2023-02-18T15:10:08.126Z,14.71
2023-02-18T15:12:54.859Z,14.81
2023-02-18T15:15:35.238Z,14.75
2023-02-18T15:18:30.702Z,14.70
2023-02-18T15:21:17.945Z,14.78
2023-02-18T15:24:08.452Z,14.61
2023-02-18T15:27:03.114Z,14.60
2023-02-18T15:29:50.456Z,14.56
2023-02-18T15:32:35.753Z,14.53
2023-02-18T15:35:27.003Z,14.52
2023-02-18T15:38:04.754Z,14.47
2023-02-18T15:40:43.062Z,14.43
2023-02-18T15:43:27.475Z,14.29
2023-02-18T15:46:26.315Z,14.22
2023-02-18T15:49:23.198Z,14.14
2023-02-18T15:52:16.251Z,14.17
2023-02-18T15:55:11.756Z,14.09
2023-02-18T15:57:50.652Z,13.96
2023-02-18T16:00:40.340Z,13.88
2023-02-18T16:03:28.537Z,13.78
2023-02-18T16:06:48.280Z,13.81
2023-02-18T16:09:46.609Z,13.76
2023-02-18T16:12:32.282Z,13.60
2023-02-18T16:15:22.907Z,13.58
2023-02-18T16:18:03.938Z,13.55
2023-02-18T16:20:56.309Z,13.47
2023-02-18T16:23:54.369Z,13.35
2023-02-18T16:26:43.711Z,13.18
2023-02-18T16:29:30.391Z,12.99
2023-02-18T16:32:19.263Z,12.80
2023-02-18T16:35:06.708Z,12.70
2023-02-18T16:37:57.956Z,12.41
2023-02-18T16:40:47.315Z,12.28
2023-02-18T16:43:29.049Z,12.06
2023-02-18T16:46:16.679Z,11.93
2023-02-18T16:49:05.962Z,11.76
2023-02-18T16:51:53.447Z,11.52
2023-02-18T16:54:33.347Z,11.34
2023-02-18T16:57:24.335Z,11.46
2023-02-18T17:00:11.239Z,11.19
2023-02-18T17:03:03.880Z,11.26
2023-02-18T17:05:54.335Z,11.17
2023-02-18T17:08:32.556Z,10.96
2023-02-18T17:11:21.331Z,10.83
2023-02-18T17:14:06.357Z,10.65
2023-02-18T17:16:54.601Z,10.68
2023-02-18T17:19:35.431Z,10.86
2023-02-18T17:22:21.646Z,10.82
2023-02-18T17:25:13.301Z,10.72
2023-02-18T17:28:02.298Z,10.54
2023-02-18T17:31:07.385Z,10.63
2023-02-18T17:33:50.353Z,10.54
2023-02-18T17:36:34.650Z,10.54
2023-02-18T17:39:15.268Z,10.56
2023-02-18T17:42:01.225Z,10.60
2023-02-18T17:44:44.193Z,10.60
2023-02-18T17:47:32.352Z,10.70
2023-02-18T17:50:15.552Z,10.69
2023-02-18T17:52:53.434Z,10.73
2023-02-18T17:55:37.295Z,10.59
2023-02-18T17:58:20.979Z,10.59
2023-02-18T18:01:18.823Z,10.57
2023-02-18T18:04:16.155Z,10.62
2023-02-18T18:07:03.119Z,10.67
2023-02-18T18:09:53.722Z,10.72
2023-02-18T18:12:47.431Z,10.82
2023-02-18T18:15:46.206Z,10.84
2023-02-18T18:18:31.738Z,10.87
2023-02-18T18:21:17.136Z,10.95
2023-02-18T18:24:00.613Z,10.91
2023-02-18T18:26:59.161Z,11.05
2023-02-18T18:29:43.421Z,11.00
2023-02-18T18:32:28.036Z,11.04
2023-02-18T18:35:21.491Z,11.08
2023-02-18T18:37:56.569Z,11.04
2023-02-18T18:40:46.068Z,11.18
2023-02-18T18:43:37.696Z,11.16
2023-02-18T18:46:22.396Z,11.23
2023-02-18T18:49:03.333Z,11.26
2023-02-18T18:51:47.608Z,11.25
2023-02-18T18:54:29.062Z,11.26
2023-02-18T18:57:07.495Z,11.16
2023-02-18T19:00:07.202Z,11.28
2023-02-18T19:02:48.261Z,11.26
2023-02-18T19:05:35.559Z,11.30
2023-02-18T19:08:21.549Z,11.11
2023-02-18T19:11:08.365Z,11.31
2023-02-18T19:13:57.201Z,11.36
2023-02-18T19:17:02.828Z,11.29
2023-02-18T19:19:54.475Z,11.20
2023-02-18T19:22:40.053Z,11.14
2023-02-18T19:25:34.400Z,11.14
2023-02-18T19:28:17.039Z,11.06
2023-02-18T19:31:01.939Z,11.20
2023-02-18T19:34:12.280Z,11.20
2023-02-18T19:36:56.563Z,11.18
2023-02-18T19:39:50.221Z,11.32
2023-02-18T19:42:33.814Z,11.22
2023-02-18T19:45:17.521Z,11.21
2023-02-18T19:48:06.710Z,11.27
2023-02-18T19:50:49.548Z,11.48
2023-02-18T19:53:46.813Z,11.47
2023-02-18T19:56:26.495Z,11.30
2023-02-18T19:59:15.863Z,11.34
2023-02-18T20:01:59.151Z,11.54
2023-02-18T20:04:45.003Z,11.59
2023-02-18T20:07:32.592Z,11.52
2023-02-18T20:10:25.696Z,11.50
2023-02-18T20:13:09.690Z,11.63
2023-02-18T20:15:53.285Z,11.65
2023-02-18T20:18:52.077Z,11.68
2023-02-18T20:21:42.256Z,11.65
2023-02-18T20:24:32.683Z,11.72
2023-02-18T20:27:14.547Z,11.88
2023-02-18T20:29:58.407Z,11.91
2023-02-18T20:32:45.060Z,12.04
2023-02-18T20:35:32.299Z,12.15
2023-02-18T20:38:12.638Z,12.45
2023-02-18T20:40:58.184Z,12.76
2023-02-18T20:43:38.965Z,12.98
2023-02-18T20:46:27.747Z,13.08
2023-02-18T20:49:14.557Z,13.19
2023-02-18T20:51:50.979Z,13.23
2023-02-18T20:54:36.234Z,13.29
2023-02-18T20:57:24.750Z,13.32
2023-02-18T21:00:08.848Z,13.22
2023-02-18T21:02:58.378Z,13.19
2023-02-18T21:05:36.776Z,13.16
2023-02-18T21:08:26.689Z,13.12
2023-02-18T21:11:06.302Z,13.11
2023-02-18T21:13:48.265Z,13.14
2023-02-18T21:16:48.244Z,13.02
2023-02-18T21:19:35.114Z,13.02
2023-02-18T21:22:26.423Z,13.00
2023-02-18T21:25:16.032Z,12.99
2023-02-18T21:27:50.289Z,12.99
2023-02-18T21:30:37.916Z,12.97
2023-02-18T21:33:21.311Z,12.97
2023-02-18T21:36:23.730Z,12.91
2023-02-18T21:39:16.498Z,12.88
2023-02-18T21:41:59.920Z,12.82
2023-02-18T21:44:53.112Z,12.88
2023-02-18T21:47:34.511Z,12.80
2023-02-18T21:50:19.942Z,12.79
2023-02-18T21:53:01.247Z,12.70
2023-02-18T21:56:03.443Z,12.66
2023-02-18T21:58:59.270Z,12.53
2023-02-18T22:01:41.376Z,12.29
2023-02-18T22:04:23.282Z,12.24
2023-02-18T22:07:02.604Z,12.23
2023-02-18T22:09:54.135Z,12.12
2023-02-18T22:12:37.244Z,12.03
2023-02-18T22:15:19.766Z,12.01
2023-02-18T22:18:06.579Z,11.92
2023-02-18T22:20:53.146Z,11.79
2023-02-18T22:23:34.222Z,11.64
2023-02-18T22:26:15.336Z,11.60
2023-02-18T22:29:04.323Z,11.56
2023-02-18T22:31:47.772Z,11.59
2023-02-18T22:34:29.332Z,11.49
2023-02-18T22:37:20.901Z,11.55
2023-02-18T22:40:10.431Z,11.40
2023-02-18T22:42:57.318Z,11.43
2023-02-18T22:45:50.440Z,11.33
2023-02-18T22:48:40.026Z,11.30
2023-02-18T22:51:25.206Z,11.27
2023-02-18T22:54:14.062Z,11.16
2023-02-18T22:56:58.460Z,11.00
2023-02-18T22:59:43.819Z,11.06
2023-02-18T23:02:27.622Z,10.95
2023-02-18T23:05:14.137Z,10.95
2023-02-18T23:07:57.330Z,10.97
2023-02-18T23:10:34.376Z,11.01
2023-02-18T23:13:13.321Z,10.93
2023-02-18T23:16:01.583Z,10.73
2023-02-18T23:18:50.837Z,10.86
2023-02-18T23:21:33.759Z,10.86
2023-02-18T23:24:17.506Z,10.73
2023-02-18T23:26:55.332Z,10.79
2023-02-18T23:29:37.191Z,10.73
2023-02-18T23:32:19.164Z,10.69
2023-02-18T23:34:57.415Z,10.51
2023-02-18T23:37:56.893Z,10.40
2023-02-18T23:40:48.806Z,10.37
2023-02-18T23:43:40.643Z,10.40
2023-02-18T23:46:28.256Z,10.40
2023-02-18T23:49:07.109Z,10.49
2023-02-18T23:51:56.142Z,10.56
2023-02-18T23:54:36.636Z,10.63
2023-02-18T23:57:32.154Z,10.71
